DW4348 Weather Reports


Display with metric or nautical units.
time (UTC)temp
F
wind
direction
speed
MPH
gust
MPH
rain 1hr
in
rain 24hr
in
rain mn
in
humidity
%
barometer
mb
20191023155838 59 177 0.0 1.0 0.00 0.00 0.00 30 1014.3
20191023154850 58 90 0.0 0.0 0.00 0.00 0.00 32 1014.3
20191023153846 57 117 1.0 4.0 0.00 0.00 0.00 32 1014.4
20191023152823 57 280 2.0 4.0 0.00 0.00 0.00 33 1014.6
20191023151754 57 148 0.0 3.0 0.00 0.00 0.00 32 1014.3
20191023150732 57 83 0.0 1.0 0.00 0.00 0.00 34 1014.3
20191023145727 55 123 0.0 0.0 0.00 0.00 0.00 35 1014.3
20191023144731 55 142 0.0 0.0 0.00 0.00 0.00 35 1014.3
20191023143744 54 101 0.0 0.0 0.00 0.00 0.00 36 1014.1
20191023142740 53 100 0.0 0.0 0.00 0.00 0.00 37 1013.9
20191023141746 51 100 0.0 0.0 0.00 0.00 0.00 38 1013.8
20191023140732 51 102 0.0 0.0 0.00 0.00 0.00 38 1013.7
20191023135743 51 79 0.0 0.0 0.00 0.00 0.00 38 1013.8
20191023134805 51 79 0.0 1.0 0.00 0.00 0.00 38 1013.7
20191023133803 51 79 1.0 0.0 0.00 0.00 0.00 38 1013.7
20191023132826 50 79 0.0 2.0 0.00 0.00 0.00 39 1013.5
20191023131838 50 125 0.0 0.0 0.00 0.00 0.00 39 1013.6
20191023130832 50 131 0.0 2.0 0.00 0.00 0.00 39 1013.5
20191023125836 50 93 2.0 4.0 0.00 0.00 0.00 38 1013.3
20191023124833 51 98 0.0 0.0 0.00 0.00 0.00 37 1013.3
20191023123856 51 92 0.0 0.0 0.00 0.00 0.00 37 1013.4
20191023122916 50 72 2.0 4.0 0.00 0.00 0.00 38 1013.4
20191023121905 51 117 0.0 0.0 0.00 0.00 0.00 37 1013.5
20191023120836 51 89 1.0 2.0 0.00 0.00 0.00 37 1013.3
20191023115819 53 92 0.0 0.0 0.00 0.00 0.00 35 1013.2
20191023114844 52 75 2.0 4.0 0.00 0.00 0.00 35 1013.2
20191023113846 54 91 0.0 0.0 0.00 0.00 0.00 34 1013.1
20191023112856 53 84 3.0 4.0 0.00 0.00 0.00 36 1013.1
20191023111839 52 79 3.0 5.0 0.00 0.00 0.00 37 1013.2
20191023110848 53 79 1.0 5.0 0.00 0.00 0.00 35 1013.3
20191023105821 52 145 0.0 0.0 0.00 0.00 0.00 36 1013.4
20191023104754 53 145 2.0 5.0 0.00 0.00 0.00 35 1013.2
20191023103812 52 79 3.0 5.0 0.00 0.00 0.00 36 1013.2
20191023102820 53 80 2.0 5.0 0.00 0.00 0.00 35 1013.3
20191023101817 53 89 0.0 0.0 0.00 0.00 0.00 34 1013.5
20191023100757 54 89 0.0 0.0 0.00 0.00 0.00 34 1013.4
20191023095734 54 89 0.0 0.0 0.00 0.00 0.00 33 1013.4
20191023094729 55 89 1.0 2.0 0.00 0.00 0.00 33 1013.5
20191023093754 54 83 2.0 4.0 0.00 0.00 0.00 33 1013.5
20191023092754 55 79 3.0 4.0 0.00 0.00 0.00 33 1013.7
20191023091725 56 85 1.0 3.0 0.00 0.00 0.00 32 1013.7
20191023090738 57 86 0.0 0.0 0.00 0.00 0.00 31 1013.7
20191023085756 56 86 0.0 3.0 0.00 0.00 0.00 31 1013.8
20191023084741 58 255 0.0 0.0 0.00 0.00 0.00 30 1013.8
20191023083744 59 255 0.0 0.0 0.00 0.00 0.00 29 1013.7
20191023082757 61 93 2.0 4.0 0.00 0.00 0.00 26 1013.7
20191023081810 60 103 3.0 5.0 0.00 0.00 0.00 27 1013.8
20191023080821 60 83 3.0 5.0 0.00 0.00 0.00 28 1013.6
20191023075824 58 79 4.0 5.0 0.00 0.00 0.00 30 1013.6
20191023074816 59 78 2.0 4.0 0.00 0.00 0.00 29 1013.8
20191023073753 60 94 0.0 1.0 0.00 0.00 0.00 28 1013.8
20191023072806 60 93 1.0 4.0 0.00 0.00 0.00 28 1013.8
20191023071814 60 80 2.0 4.0 0.00 0.00 0.00 28 1013.7
20191023070749 61 83 0.0 3.0 0.00 0.00 0.00 28 1014.0
20191023065756 60 89 0.0 0.0 0.00 0.00 0.00 28 1013.9
20191023064746 61 79 1.0 3.0 0.00 0.00 0.00 27 1014.0
20191023063805 62 67 0.0 3.0 0.00 0.00 0.00 26 1013.9
20191023062740 63 137 1.0 0.0 0.00 0.00 0.00 25 1013.8
20191023061743 65 108 1.0 6.0 0.00 0.00 0.00 23 1013.9
20191023060803 66 94 3.0 6.0 0.00 0.00 0.00 23 1013.8
20191023055731 67 110 3.0 6.0 0.00 0.00 0.00 22 1013.9
20191023054753 67 105 3.0 6.0 0.00 0.00 0.00 22 1014.0
20191023053733 66 142 1.0 4.0 0.00 0.00 0.00 23 1014.1
20191023052725 67 120 3.0 10.0 0.00 0.00 0.00 22 1014.0
20191023051717 68 103 6.0 10.0 0.00 0.00 0.00 21 1014.0
20191023050707 68 108 4.0 7.0 0.00 0.00 0.00 21 1013.9
20191023045645 68 105 3.0 6.0 0.00 0.00 0.00 21 1013.9
20191023044622 67 78 4.0 8.0 0.00 0.00 0.00 22 1013.9
20191023043601 67 92 5.0 8.0 0.00 0.00 0.00 22 1014.0
20191023042526 65 79 2.0 5.0 0.00 0.00 0.00 24 1013.8
20191023041528 64 75 4.0 5.0 0.00 0.00 0.00 25 1013.9
20191023040552 64 99 0.0 2.0 0.00 0.00 0.00 25 1013.8
20191023035517 64 86 0.0 3.0 0.00 0.00 0.00 25 1013.8
20191023034613 65 80 1.0 7.0 0.00 0.00 0.00 25 1013.7
20191023033711 68 271 3.0 4.0 0.00 0.00 0.00 22 1013.6
20191023032601 69 92 4.0 7.0 0.00 0.00 0.00 20 1013.4
20191023031624 69 86 1.0 4.0 0.00 0.00 0.00 20 1013.4
20191023030552 70 89 3.0 6.0 0.00 0.00 0.00 20 1013.3
20191023025548 69 105 3.0 6.0 0.00 0.00 0.00 20 1013.3
20191023024556 70 109 3.0 5.0 0.00 0.00 0.00 20 1013.3
20191023023614 70 115 2.0 4.0 0.00 0.00 0.00 20 1013.3
20191023022600 70 98 2.0 6.0 0.00 0.00 0.00 19 1013.2
20191023021622 73 92 3.0 6.0 0.00 0.00 0.00 18 1013.2
20191023020556 72 109 3.0 6.0 0.00 0.00 0.00 19 1013.1
20191023015542 71 105 2.0 4.0 0.00 0.00 0.00 19 1013.1
20191023014544 72 109 3.0 7.0 0.00 0.00 0.00 19 1013.0
20191023013537 72 145 3.0 7.0 0.00 0.00 0.00 18 1012.9
20191023012558 72 78 4.0 7.0 0.00 0.00 0.00 18 1012.6
20191023011538 73 86 4.0 7.0 0.00 0.00 0.00 18 1012.6
20191023010504 72 61 4.0 6.0 0.00 0.00 0.00 19 1012.5
20191023005521 73 85 4.0 5.0 0.00 0.00 0.00 19 1012.5
20191023004532 73 67 3.0 6.0 0.00 0.00 0.00 19 1012.5
20191023003546 73 82 4.0 6.0 0.00 0.00 0.00 19 1012.6
20191023002610 74 79 3.0 6.0 0.00 0.00 0.00 18 1012.6
20191023001617 77 79 3.0 5.0 0.00 0.00 0.00 17 1012.5
20191023000638 79 87 3.0 5.0 0.00 0.00 0.00 15 1012.5
20191022235612 82 84 0.0 2.0 0.00 0.00 0.00 14 1012.6
20191022234558 81 84 0.0 4.0 0.00 0.00 0.00 15 1012.8
20191022233619 82 257 0.0 4.0 0.00 0.00 0.00 14 1012.8
20191022232545 82 87 0.0 2.0 0.00 0.00 0.00 14 1013.0
20191022231524 82 118 0.0 2.0 0.00 0.00 0.00 14 1013.2
20191022230522 81 123 0.0 4.0 0.00 0.00 0.00 15 1013.4
20191022225543 81 249 1.0 4.0 0.00 0.00 0.00 14 1013.5
20191022224521 80 228 1.0 4.0 0.00 0.00 0.00 14 1013.6
20191022223514 81 148 1.0 4.0 0.00 0.00 0.00 14 1013.6
20191022222504 81 94 0.0 5.0 0.00 0.00 0.00 14 1013.7
20191022221523 80 269 1.0 5.0 0.00 0.00 0.00 14 1013.8
20191022220536 81 165 1.0 5.0 0.00 0.00 0.00 14 1013.9
20191022215524 81 75 1.0 5.0 0.00 0.00 0.00 15 1013.9
20191022214548 81 217 1.0 4.0 0.00 0.00 0.00 14 1014.0
20191022213551 81 92 0.0 2.0 0.00 0.00 0.00 14 1014.2
20191022212548 81 122 0.0 2.0 0.00 0.00 0.00 15 1014.3
20191022211613 80 162 0.0 5.0 0.00 0.00 0.00 14 1014.4
20191022210546 80 39 0.0 3.0 0.00 0.00 0.00 14 1014.6
20191022205535 80 146 0.0 2.0 0.00 0.00 0.00 14 1014.7
20191022204548 79 321 1.0 5.0 0.00 0.00 0.00 15 1015.0
20191022203551 80 30 1.0 4.0 0.00 0.00 0.00 14 1015.2
20191022202531 79 105 1.0 4.0 0.00 0.00 0.00 15 1015.6
20191022201519 78 98 1.0 5.0 0.00 0.00 0.00 16 1015.9
20191022200535 78 84 0.0 4.0 0.00 0.00 0.00 15 1016.1
20191022195600 77 75 1.0 7.0 0.00 0.00 0.00 15 1016.5
20191022194541 77 81 2.0 7.0 0.00 0.00 0.00 16 1016.7
20191022193520 77 9 1.0 4.0 0.00 0.00 0.00 15 1017.1
20191022192445 77 6 0.0 5.0 0.00 0.00 0.00 16 1017.4
20191022191435 76 194 1.0 7.0 0.00 0.00 0.00 16 1017.7
20191022190432 76 67 2.0 7.0 0.00 0.00 0.00 16 1018.0
20191022185430 75 84 1.0 4.0 0.00 0.00 0.00 16 1018.2
20191022184418 74 128 0.0 4.0 0.00 0.00 0.00 17 1018.4
20191022183401 74 153 0.0 3.0 0.00 0.00 0.00 17 1018.7
20191022182333 73 100 1.0 4.0 0.00 0.00 0.00 17 1018.9
20191022181330 73 124 1.0 4.0 0.00 0.00 0.00 18 1019.0
20191022180321 72 212 1.0 4.0 0.00 0.00 0.00 18 1019.1
20191022175304 71 131 0.0 1.0 0.00 0.00 0.00 18 1019.4
20191022174324 71 135 0.0 2.0 0.00 0.00 0.00 18 1019.4
20191022173311 71 204 0.0 3.0 0.00 0.00 0.00 18 1019.6
20191022172304 69 114 0.0 3.0 0.00 0.00 0.00 20 1019.7
20191022171313 67 151 0.0 0.0 0.00 0.00 0.00 20 1019.9
20191022170316 66 163 1.0 3.0 0.00 0.00 0.00 21 1020.1
20191022165327 65 178 1.0 4.0 0.00 0.00 0.00 21 1020.4
20191022164353 64 188 1.0 4.0 0.00 0.00 0.00 22 1020.5
20191022163324 63 180 1.0 3.0 0.00 0.00 0.00 22 1020.7
20191022162325 62 177 1.0 3.0 0.00 0.00 0.00 23 1020.6
20191022161321 61 163 1.0 3.0 0.00 0.00 0.00 23 1020.6
20191022160345 61 169 1.0 3.0 0.00 0.00 0.00 24 1020.8